Whitewater Creek, Colorado (Grand Mesa) Weather observations

Data are for observation ending at time listed.
 Day   Time    Ave.   Ave.  Ave.  Vector   Max.    Total    Solar   Ave.  
  of    of     Air    Rel.  Wind   Wind    Wind   Precip.   Rad.    Soil  
Year   Day     Temp.  Hum.  Speed  Dir.    Gust                     Temp. 
2015   (MST)    F      %     mph   deg.    mph      in.     W/m2     F   
------------------------------------------------------------------------------
 186   22:50   45.7    89    3.0    27      4.8    99999.00   99999    99999.0
 186   23:00   45.9    90    3.4    33      4.8    99999.00   99999    99999.0
 186   23:10   46.6    88    2.4    33      3.5    99999.00   99999    99999.0
 186   23:20   47.0    86    2.2    33      2.2    99999.00   99999    99999.0
 186   23:30   46.8    87    2.2    33      2.2    99999.00   99999    99999.0
 186   23:40   46.6    86    2.2    30      2.2    99999.00   99999    99999.0
 186   23:50   47.4    85    2.2    28      2.2    99999.00   99999    99999.0
 187    0:00   47.1    89    2.2    28      2.2    99999.00   99999    99999.0
 187    0:10   47.2    92    2.2    28      2.2    99999.00   99999    99999.0
 187    0:20   46.9    93    2.2    28      2.2    99999.00   99999    99999.0
 187    0:30   47.2    92    2.2    28      2.2    99999.00   99999    99999.0
 187    0:40   46.9    92    2.2    28      2.2    99999.00   99999    99999.0
 187    0:50   46.8    92    2.2   334      2.2    99999.00   99999    99999.0
 187    1:00   46.7    93    2.2   311      2.2    99999.00   99999    99999.0
 187    1:10   46.9    92    2.2   311      2.2    99999.00   99999    99999.0
 187    1:20   47.3    90    2.2   311      2.2    99999.00   99999    99999.0
 187    1:30   47.7    87    2.2   311      2.2    99999.00   99999    99999.0
 187    1:40   47.5    88    2.2   311      2.2    99999.00   99999    99999.0
 187    1:50   46.9    90    2.2   311      2.2    99999.00   99999    99999.0
 187    2:00   46.5    91    2.2   311      2.2    99999.00   99999    99999.0
 187    2:10   46.7    92    2.2   311      2.2    99999.00   99999    99999.0
 187    2:20   46.5    93    2.2   311      2.2    99999.00   99999    99999.0
 187    2:30   45.7    93    2.2   311      2.2    99999.00   99999    99999.0
 187    2:40   45.6    95    2.2   311      2.2    99999.00   99999    99999.0
 187    2:50   45.0    94    2.2   311      2.2    99999.00   99999    99999.0
 187    3:00   45.2    95    2.2   311      2.2    99999.00   99999    99999.0
 187    3:10   45.1    95    2.2   311      2.2    99999.00   99999    99999.0
 187    3:20   44.9    94    2.2   311      2.2    99999.00   99999    99999.0
 187    3:30   44.5    94    2.2   312      2.2    99999.00   99999    99999.0
 187    3:40   44.2    94    2.2   312      2.2    99999.00   99999    99999.0
 187    3:50   43.8    94    2.2   311      2.2    99999.00   99999    99999.0
 187    4:00   43.9    95    2.2   311      2.2    99999.00   99999    99999.0
 187    4:10   44.6    95    2.2   311      2.2    99999.00   99999    99999.0
 187    4:20   44.0    94    2.2   311      2.2    99999.00   99999    99999.0
 187    4:30   43.1    95    2.2   311      2.2    99999.00   99999    99999.0
 187    4:40   43.1    96    2.2   311      2.2    99999.00   99999    99999.0
 187    4:50   43.3    94    2.2   311      2.2    99999.00   99999    99999.0
 187    5:00   42.6    94    2.2   311      2.2    99999.00   99999    99999.0
 187    5:10   43.1    96    2.2   311      2.2    99999.00   99999    99999.0
 187    5:20   43.4    96    2.2   311      2.2    99999.00   99999    99999.0
 187    5:30   43.3    96    2.2   311      2.2    99999.00   99999    99999.0
 187    5:40   43.4    96    2.2   311      2.2    99999.00   99999    99999.0
 187    5:50   43.3    96    2.2   311      2.2    99999.00   99999    99999.0
 187    6:00   44.0    96    2.2   311      2.2    99999.00   99999    99999.0
 187    6:10   44.0    95    2.2   311      2.2    99999.00   99999    99999.0
 187    6:20   44.0    95    2.2   311      2.2    99999.00   99999    99999.0
 187    6:30   44.9    94    2.2   311      2.2    99999.00   99999    99999.0
 187    6:40   45.2    93    2.2   311      2.2    99999.00   99999    99999.0
 187    6:50   46.1    89    2.2   311      2.2    99999.00   99999    99999.0
 187    7:00   47.6    87    2.2   311      2.2    99999.00   99999    99999.0
 187    7:10   50.4    84    2.2   311      2.2    99999.00   99999    99999.0
 187    7:20   52.4    82    2.2   311      2.2    99999.00   99999    99999.0
 187    7:30   53.2    81    2.2   311      2.2    99999.00   99999    99999.0
 187    7:40   54.1    78    2.2   311      2.2    99999.00   99999    99999.0
 187    7:50   54.4    78    2.2   311      2.2    99999.00   99999    99999.0
 187    8:00   56.0    71    2.2   330      2.2    99999.00   99999    99999.0
 187    8:10   56.4    68    2.2    17      2.2    99999.00   99999    99999.0
 187    8:20   56.3    68    2.2    23      2.2    99999.00   99999    99999.0
 187    8:30   56.7    67    2.2    23      2.2    99999.00   99999    99999.0
 187    8:40   57.9    67    2.2   359      2.2    99999.00   99999    99999.0
 187    8:50   58.2    65    2.2   307      2.2    99999.00   99999    99999.0
 187    9:00   58.0    66    2.2   290      2.2    99999.00   99999    99999.0
 187    9:10   57.4    68    5.0    30     12.5    99999.00   99999    99999.0
 187    9:20   56.2    71    6.5    32     11.2    99999.00   99999    99999.0
 187    9:30   57.0    70    4.4    28      8.6    99999.00   99999    99999.0
 187    9:40   57.9    68    3.1    51      8.6    99999.00   99999    99999.0
 187    9:50   57.1    69    4.7    19      9.9    99999.00   99999    99999.0
 187   10:00   56.5    67    3.4   317      7.4    99999.00   99999    99999.0
 187   10:10   55.0    71    3.7   293      7.4    99999.00   99999    99999.0
 187   10:20   54.8    72    4.8   308      8.6    99999.00   99999    99999.0
 187   10:30   54.2    77    2.4   308      4.8    99999.00   99999    99999.0
 187   10:40   53.9    80    2.2   302      2.2    99999.00   99999    99999.0
 187   10:50   53.7    78    4.0   330      7.4    99999.00   99999    99999.0
 187   11:00   53.0    84    5.6    16      8.6    99999.00   99999    99999.0
 187   11:10   51.5    91    4.9    28      8.6    99999.00   99999    99999.0
 187   11:20   50.7    94    3.0    20      6.1    99999.00   99999    99999.0
 187   11:30   50.8    95    4.0    21      8.6    99999.00   99999    99999.0
 187   11:40   53.2    89    5.0    36      8.6    99999.00   99999    99999.0
 187   11:50   56.8    76    5.9    40     12.5    99999.00   99999    99999.0
 187   12:00   56.3    78    6.5    34     12.5    99999.00   99999    99999.0
 187   12:10   58.0    70    5.1    19     11.2    99999.00   99999    99999.0
 187   12:20   57.2    72    6.8    20     12.5    99999.00   99999    99999.0
 187   12:30   56.2    75    8.0    29     15.0    99999.00   99999    99999.0
 187   12:40   56.0    74    4.9   352     13.8    99999.00   99999    99999.0
 187   12:50   58.2    70    2.3   339      3.5    99999.00   99999    99999.0
 187   13:00   58.6    68    3.5   357      8.6    99999.00   99999    99999.0
 187   13:10   58.2    67    5.2   358      9.9    99999.00   99999    99999.0
 187   13:20   58.0    64    5.4    21      9.9    99999.00   99999    99999.0
 187   13:30   59.0    64    7.2    32     11.2    99999.00   99999    99999.0
 187   13:40   59.1    61    5.4    32      9.9    99999.00   99999    99999.0
 187   13:50   58.2    61    5.9    34     11.2    99999.00   99999    99999.0
 187   14:00   58.9    63    4.1    30      7.4    99999.00   99999    99999.0
 187   14:10   58.4    64    4.1    40      8.6    99999.00   99999    99999.0
 187   14:20   60.7    59    3.0    28      9.9    99999.00   99999    99999.0
 187   14:30   59.8    60    4.1    35      9.9    99999.00   99999    99999.0
 187   14:40   59.9    57    2.7   359      9.9    99999.00   99999    99999.0
 187   14:50   59.7    56    5.5    19      9.9    99999.00   99999    99999.0
 187   15:00   60.1    55    6.4    14     11.2    99999.00   99999    99999.0
 187   15:10   59.0    54    5.6     8      9.9    99999.00   99999    99999.0
 187   15:20   58.6    58    5.4   349     12.5    99999.00   99999    99999.0
 187   15:30   57.5    60    6.2     9     13.8    99999.00   99999    99999.0
 187   15:40   57.0    62    4.0    14     11.2    99999.00   99999    99999.0
 187   15:50   57.0    61    2.6    17      4.8    99999.00   99999    99999.0
 187   16:00   56.4    67    2.5    17      4.8    99999.00   99999    99999.0
 187   16:10   53.9    78    4.1   126      7.4    99999.00   99999    99999.0
 187   16:20   52.3    78    3.7   143      6.1    99999.00   99999    99999.0
 187   16:30   55.8    73    2.3   144      3.5    99999.00   99999    99999.0
 187   16:40   58.7    61    2.2   142      2.2    99999.00   99999    99999.0
 187   16:50   59.7    56    2.2   137      2.2    99999.00   99999    99999.0
 187   17:00   60.2    58    2.2   137      2.2    99999.00   99999    99999.0
 187   17:10   59.7    59    3.0    93      8.6    99999.00   99999    99999.0
 187   17:20   60.5    50    4.0   358      8.6    99999.00   99999    99999.0
 187   17:30   60.6    48    4.9   342      9.9    99999.00   99999    99999.0
 187   17:40   60.9    48    4.3   352      8.6    99999.00   99999    99999.0
 187   17:50   60.4    53    4.3   313      8.6    99999.00   99999    99999.0
 187   18:00   60.4    54    5.1   309      8.6    99999.00   99999    99999.0
 187   18:10   58.7    58    5.2   284      9.9    99999.00   99999    99999.0
 187   18:20   58.2    60    3.9   269      7.4    99999.00   99999    99999.0
 187   18:30   57.3    62    4.0   261      6.1    99999.00   99999    99999.0
 187   18:40   56.8    65    2.6   256      4.8    99999.00   99999    99999.0
 187   18:50   56.4    67    2.2   256      2.2    99999.00   99999    99999.0
 187   19:00   55.5    70    2.2   257      2.2    99999.00   99999    99999.0
 187   19:10   54.8    71    2.2   257      2.2    99999.00   99999    99999.0
 187   19:20   54.2    74    2.2   257      2.2    99999.00   99999    99999.0
 187   19:30   53.9    77    2.2   257      2.2    99999.00   99999    99999.0
 187   19:40   52.6    84    2.2   257      2.2    99999.00   99999    99999.0
 187   19:50   52.0    86    2.2   257      2.2    99999.00   99999    99999.0
 187   20:00   51.6    87    2.2   257      2.2    99999.00   99999    99999.0
 187   20:10   51.9    82    2.2   256      2.2    99999.00   99999    99999.0
 187   20:20   52.0    82    2.4   254     11.2    99999.00   99999    99999.0
 187   20:30   51.8    84    2.2   254      2.2    99999.00   99999    99999.0
 187   20:40   50.8    86    2.2   254      2.2    99999.00   99999    99999.0
 187   20:50   50.2    89    2.2   254      2.2    99999.00   99999    99999.0
 187   21:00   50.7    84    2.2   263      2.2    99999.00   99999    99999.0
 187   21:10   52.7    72    3.0   286      7.4    99999.00   99999    99999.0
 187   21:20   53.6    63    4.7   291      9.9    99999.00   99999    99999.0
 187   21:30   52.4    65    7.7   284     13.8    99999.00   99999    99999.0
 187   21:40   51.7    64    6.9   293     12.5    99999.00   99999    99999.0
 187   21:50   51.2    64    7.2   298     12.5    99999.00   99999    99999.0
 187   22:00   50.7    66    7.6   303     12.5    99999.00   99999    99999.0
 187   22:10   50.4    68    5.9   323     12.5    99999.00   99999    99999.0
 187   22:20   50.4    68    3.6   346      9.9    99999.00   99999    99999.0
 187   22:30   49.9    70    6.3   338     12.5    99999.00   99999    99999.0
 187   22:40   50.2    68    2.7   342      4.8    99999.00   99999    99999.0

Return to Whitewater Creek, Colorado graphs page.


Western Regional Climate Center,wrcc@dri.edu